Latest Weather Observations for Toolara

IDQ60801

Issued at 2:35 am EST Thursday 2 October 2014 (issued every 30 minutes, with the page automatically refreshed every 10 minutes)

About weather observations | Map of weather stations | Latest weather observations for QLD | Other Formats
Station Details ID: 040555 Name: TOOLARA (KELLY) Lat: -25.97 Lon: 152.86 Height: 143.0 m
Data from the previous 72 hours. | See also: Recent months at Toolara
Date/Time
EST
Temp
°C
App
Temp
°C
Dew
Point
Rel
Hum
%
Delta-T
°C
Wind Press
QNH
hPa
Press
MSL
hPa
Rain
since 9 am
mm
Dir
 
Spd
km/h
Gust
km/h
Spd
kts
Gust
kts
02/02:30am 18.7 15.8 15.2 80 2.1 - 24 33 13 18 - - -
02/02:00am 19.0 17.3 15.7 81 2.0 - 19 33 10 18 - - -
02/01:30am 19.3 - 15.6 79 2.2 - - - - - - - -
02/01:00am 19.5 - 15.8 79 2.2 - - - - - - - -
02/12:30am 19.5 - 16.0 80 2.1 - - - - - - - -
02/12:00am 19.7 - 16.5 82 1.9 - - - - - - - -
 
Date/Time
EST
Temp
°C
App
Temp
°C
Dew
Point
Rel
Hum
%
Delta-T
°C
Wind Press
QNH
hPa
Press
MSL
hPa
Rain
since 9 am
mm
Dir
 
Spd
km/h
Gust
km/h
Spd
kts
Gust
kts
01/11:30pm 19.7 - 16.7 83 1.8 - - - - - - - -
01/11:00pm 19.7 - 17.1 85 1.6 - - - - - - - -
01/10:30pm 19.3 - 16.5 84 1.7 - - - - - - - -
01/10:00pm 17.9 17.4 14.8 82 1.8 - 11 17 6 9 - - -
01/09:30pm 18.5 - 15.0 80 2.1 - - - - - - - -
01/09:00pm 18.5 - 14.8 79 2.2 - - - - - - - 0.0
01/08:30pm 19.0 - 14.9 77 2.4 - - - - - - - -
01/08:00pm 19.4 - 14.6 74 2.8 - - - - - - - -
01/07:30pm 20.0 - 14.8 72 3.1 - - - - - - - -
01/07:00pm 20.3 - 15.1 72 3.1 - - - - - - - -
01/06:30pm 20.6 - 15.2 71 3.2 - - - - - - - -
01/06:00pm 21.1 - 15.0 68 3.6 - - - - - - - -
01/05:30pm 22.3 - 15.4 65 4.1 - - - - - - - -
01/05:00pm 23.0 - 15.8 64 4.4 - - - - - - - -
01/04:30pm 24.0 - 16.0 61 4.9 - - - - - - - -
01/04:00pm 24.9 - 16.1 58 5.4 - - - - - - - -
01/03:30pm 26.1 - 16.4 55 6.0 - - - - - - - -
01/03:00pm 27.8 - 16.1 49 7.3 - - - - - - - 0.0
01/02:30pm 30.3 - 12.7 34 10.5 - - - - - - - -
01/02:00pm 30.6 - 13.4 35 10.3 - - - - - - - -
01/01:30pm 30.2 - 13.5 36 10.0 - - - - - - - -
01/01:00pm 29.6 - 14.2 39 9.3 - - - - - - - -
01/12:30pm 29.2 - 14.2 40 9.1 - - - - - - - -
01/12:00pm 28.0 - 14.3 43 8.3 - - - - - - - -
01/11:30am 27.1 - 14.8 47 7.5 - - - - - - - -
01/11:00am 25.9 24.5 14.4 49 6.9 - 15 20 8 11 - - -
01/10:30am 25.5 - 14.9 52 6.4 - - - - - - - -
01/10:00am 23.7 - 14.7 57 5.4 - - - - - - - -
01/09:30am 22.4 - 14.5 61 4.7 - - - - - - - -
01/09:00am 21.3 - 14.7 66 3.9 - - - - - - - 0.0
01/08:30am 20.1 - 14.5 70 3.3 - - - - - - - -
01/08:00am 18.8 - 14.5 76 2.5 - - - - - - - -
01/07:30am 16.9 - 13.6 81 1.9 - - - - - - - -
01/07:00am 15.8 - 12.9 83 1.6 - - - - - - - -
01/06:30am 15.8 - 12.7 82 1.7 - - - - - - - -
01/06:00am 15.8 13.4 12.5 81 1.8 - 17 24 9 13 - - -
01/05:30am 15.7 - 12.6 82 1.7 - - - - - - - -
01/05:00am 15.4 - 12.5 83 1.6 - - - - - - - -
01/04:30am 15.7 - 12.6 82 1.7 - - - - - - - -
01/04:00am 15.7 - 12.6 82 1.7 - - - - - - - -
01/03:30am 15.7 - 12.6 82 1.7 - - - - - - - -
01/03:00am 16.0 - 12.9 82 1.7 - - - - - - - 0.0
01/02:30am 16.2 - 12.9 81 1.8 - - - - - - - -
01/02:00am 16.4 - 13.1 81 1.9 - - - - - - - -
01/01:30am 16.7 - 13.4 81 1.9 - - - - - - - -
01/01:00am 16.7 - 13.4 81 1.9 - - - - - - - -
01/12:30am 17.1 - 13.6 80 2.0 - - - - - - - -
01/12:00am 17.2 - 13.7 80 2.0 - - - - - - - -
 
Date/Time
EST
Temp
°C
App
Temp
°C
Dew
Point
Rel
Hum
%
Delta-T
°C
Wind Press
QNH
hPa
Press
MSL
hPa
Rain
since 9 am
mm
Dir
 
Spd
km/h
Gust
km/h
Spd
kts
Gust
kts
30/11:30pm 17.2 - 13.5 79 2.1 - - - - - - - -
30/11:00pm 17.5 - 13.6 78 2.2 - - - - - - - -
30/10:30pm 17.6 - 13.7 78 2.2 - - - - - - - -
30/10:00pm 17.8 - 13.7 77 2.3 - - - - - - - -
30/09:30pm 17.9 - 13.8 77 2.3 - - - - - - - -
30/09:00pm 18.0 - 13.7 76 2.5 - - - - - - - 0.0
30/08:30pm 18.2 - 13.5 74 2.7 - - - - - - - -
30/08:00pm 18.0 - 13.1 73 2.8 - - - - - - - -
30/07:30pm 18.2 - 13.3 73 2.8 - - - - - - - -
30/07:00pm 18.5 - 13.4 72 2.9 - - - - - - - -
30/06:30pm 19.0 - 13.4 70 3.2 - - - - - - - -
30/06:00pm 19.5 - 13.0 66 3.7 - - - - - - - -
30/05:30pm 20.9 - 13.4 62 4.3 - - - - - - - -
30/05:00pm 22.0 - 13.6 59 4.9 - - - - - - - -
30/04:30pm 22.6 - 13.9 58 5.1 - - - - - - - -
30/04:00pm 23.1 - 14.7 59 5.0 - - - - - - - -
30/03:30pm 23.7 - 14.7 57 5.4 - - - - - - - -
30/03:00pm 24.5 - 15.1 55 5.7 - - - - - - - 0.0
30/02:30pm 25.1 - 14.8 52 6.2 - - - - - - - -
30/02:00pm 26.6 - 15.6 50 6.7 - - - - - - - -
30/01:30pm 25.4 - 13.3 47 7.1 - - - - - - - -
30/01:00pm 26.6 - 14.4 47 7.3 - - - - - - - -
30/12:30pm 26.9 - 14.6 46 7.4 - - - - - - - -
30/12:00pm 26.1 - 13.9 47 7.3 - - - - - - - -
30/11:30am 26.1 - 14.2 48 7.1 - - - - - - - -
30/11:00am 25.7 - 14.5 50 6.7 - - - - - - - -
30/10:30am 25.6 - 15.3 53 6.3 - - - - - - - -
30/10:00am 24.0 - 15.0 57 5.4 - - - - - - - -
30/09:30am 22.0 - 14.4 62 4.5 - - - - - - - -
30/09:00am 20.8 - 14.2 66 3.9 - - - - - - - 0.0
30/08:30am 19.6 - 13.8 69 3.3 - - - - - - - -
30/08:00am 18.4 - 13.7 74 2.7 - - - - - - - -
30/07:30am 17.3 - 13.2 77 2.3 - - - - - - - -
30/07:00am 16.1 - 12.5 79 2.0 - - - - - - - -
30/06:30am 16.1 - 12.5 79 2.0 - - - - - - - -
30/06:00am 15.7 - 12.3 80 1.9 - - - - - - - -
30/05:30am 15.7 - 12.3 80 1.9 - - - - - - - -
30/05:00am 15.6 - 12.0 79 2.0 - - - - - - - -
30/04:30am 15.8 - 11.6 76 2.3 - - - - - - - -
30/04:00am 15.8 - 11.6 76 2.3 - - - - - - - -
30/03:30am 15.9 - 11.5 75 2.4 - - - - - - - -
30/03:00am 15.7 - 11.1 74 2.5 - - - - - - - 0.0
30/02:30am 16.3 - 10.8 70 3.0 - - - - - - - -
30/02:00am 16.6 - 10.9 69 3.1 - - - - - - - -
30/01:30am 16.5 - 10.8 69 3.1 - - - - - - - -
30/01:00am 17.0 - 11.1 68 3.2 - - - - - - - -
30/12:30am 17.1 - 11.4 69 3.1 - - - - - - - -
30/12:00am 16.8 - 11.5 71 2.9 - - - - - - - -
 
Date/Time
EST
Temp
°C
App
Temp
°C
Dew
Point
Rel
Hum
%
Delta-T
°C
Wind Press
QNH
hPa
Press
MSL
hPa
Rain
since 9 am
mm
Dir
 
Spd
km/h
Gust
km/h
Spd
kts
Gust
kts
29/11:30pm 16.6 - 11.3 71 2.9 - - - - - - - -
29/11:00pm 17.3 - 11.3 68 3.3 - - - - - - - -
29/10:30pm 17.4 - 11.7 69 3.1 - - - - - - - -
29/10:00pm 17.4 - 12.1 71 2.9 - - - - - - - -
29/09:30pm 17.4 - 12.3 72 2.8 - - - - - - - -
29/09:00pm 17.4 - 12.3 72 2.8 - - - - - - - 0.0
29/08:30pm 17.4 - 12.3 72 2.8 - - - - - - - -
29/08:00pm 17.2 - 12.1 72 2.8 - - - - - - - -
29/07:30pm 16.9 - 11.8 72 2.8 - - - - - - - -
29/07:00pm 17.1 - 11.6 70 3.0 - - - - - - - -
29/06:30pm 17.4 - 11.7 69 3.1 - - - - - - - -
29/06:00pm 17.8 - 11.6 67 3.4 - - - - - - - -
29/05:30pm 18.7 - 11.3 62 4.1 - - - - - - - -
29/05:00pm 19.4 - 11.2 59 4.5 - - - - - - - -
29/04:30pm 20.2 - 11.4 57 4.9 - - - - - - - -
29/04:00pm 21.0 - 11.6 55 5.3 - - - - - - - -
29/03:30pm 22.2 - 12.5 54 5.5 - - - - - - - -
29/03:00pm 22.8 - 12.1 51 6.1 - - - - - - - 0.0
29/02:30pm 24.0 - 12.6 49 6.6 - - - - - - - -
29/02:00pm 24.4 - 12.7 48 6.8 - - - - - - - -
29/01:30pm 24.7 - 13.3 49 6.7 - - - - - - - -
29/01:00pm 24.7 - 13.6 50 6.5 - - - - - - - -
29/12:30pm 23.8 - 13.1 51 6.2 - - - - - - - -
29/12:00pm 23.2 - 12.5 51 6.1 - - - - - - - -
29/11:30am 25.5 - 14.0 49 6.8 - - - - - - - -
29/11:00am 24.3 - 13.5 51 6.3 - - - - - - - -
29/10:30am 24.1 - 13.6 52 6.2 - - - - - - - -
29/10:00am 24.2 - 14.9 56 5.6 - - - - - - - -
29/09:30am 22.8 - 14.1 58 5.1 - - - - - - - -
29/09:00am 22.0 - 14.9 64 4.2 - - - - - - - 0.2
29/08:30am 19.7 - 14.3 71 3.1 - - - - - - - -
29/08:00am 17.8 - 14.1 79 2.1 - - - - - - - -
29/07:30am 16.7 - 13.8 83 1.7 - - - - - - - -
29/07:00am 16.1 - 12.8 81 1.8 - - - - - - - -
29/06:30am 15.6 - 12.4 81 1.8 - - - - - - - -
29/06:00am 15.8 - 12.9 83 1.6 - - - - - - - -
29/05:30am 14.8 - 12.1 84 1.5 - - - - - - - -
29/05:00am 15.1 - 12.1 82 1.6 - - - - - - - -
29/04:30am 15.8 - 12.4 80 1.9 - - - - - - - -
29/04:00am 15.5 - 12.1 80 1.9 - - - - - - - -
29/03:30am 15.7 - 12.3 80 1.9 - - - - - - - -
29/03:00am 15.8 - 12.4 80 1.9 - - - - - - - 0.0

Other Formats:

Comma delimited format used in spreadsheet applications
http://www.bom.gov.au/fwo/IDQ60801/IDQ60801.94558.axf

JavaScript Object Notation format (JSON) in row-major order
http://www.bom.gov.au/fwo/IDQ60801/IDQ60801.94558.json